Time;durP1;ratioP1;P1;durP2;ratioP2;P2;SDS_P1;SDS_P2;PMS_P1;PMS_P2;Temp;Humidity;BMP_temperature;BMP_pressure;BME280_temperature;BME280_humidity;BME280_pressure;Samples;Min_cycle;Max_cycle;Signal;HPM_P1;HPM_P2
2022/07/31 00:00:30;;;;;;;61.05;51.00;;;25.70;54.20;;;;;;4944363;28;91155;-52
2022/07/31 00:02:56;;;;;;;61.67;51.17;;;25.70;54.20;;;;;;4941300;28;90776;-49
2022/07/31 00:05:23;;;;;;;61.40;51.10;;;25.70;54.20;;;;;;4940773;28;93760;-46
2022/07/31 00:07:50;;;;;;;61.80;50.78;;;25.70;54.20;;;;;;4944141;28;89968;-48
2022/07/31 00:10:16;;;;;;;61.28;50.95;;;25.70;54.20;;;;;;4948987;28;89601;-51
2022/07/31 00:12:41;;;;;;;61.28;51.00;;;25.70;54.40;;;;;;4943875;28;89808;-53
2022/07/31 00:15:11;;;;;;;61.17;51.15;;;25.70;54.30;;;;;;4932809;28;92617;-52
2022/07/31 00:17:41;;;;;;;61.03;50.97;;;25.70;54.40;;;;;;4939263;28;93844;-52
2022/07/31 00:20:08;;;;;;;60.92;50.70;;;25.70;54.50;;;;;;4947285;28;91204;-48
2022/07/31 00:22:34;;;;;;;61.58;51.05;;;25.70;54.40;;;;;;4939976;28;91057;-54
2022/07/31 00:25:00;;;;;;;61.95;51.13;;;25.70;54.50;;;;;;4939331;28;91719;-48
2022/07/31 00:27:25;;;;;;;61.20;51.25;;;25.70;54.50;;;;;;4938428;28;90361;-48
2022/07/31 00:29:51;;;;;;;61.15;50.95;;;25.70;54.40;;;;;;4947773;28;90008;-52
2022/07/31 00:32:17;;;;;;;61.50;51.03;;;25.80;54.60;;;;;;4946353;28;90470;-51
2022/07/31 00:34:42;;;;;;;60.88;50.88;;;25.70;54.50;;;;;;4942299;28;92894;-49
2022/07/31 00:37:08;;;;;;;61.80;51.03;;;25.70;54.70;;;;;;4946162;28;90989;-49
2022/07/31 00:39:35;;;;;;;60.78;51.03;;;25.70;54.60;;;;;;4932726;28;92882;-53
2022/07/31 00:42:01;;;;;;;61.55;50.97;;;25.70;54.70;;;;;;4940348;28;89856;-53
2022/07/31 00:44:27;;;;;;;60.53;50.78;;;25.70;54.80;;;;;;4940751;28;90669;-53
2022/07/31 00:46:53;;;;;;;60.65;51.05;;;25.70;54.80;;;;;;4938804;28;92378;-53
2022/07/31 00:49:19;;;;;;;61.83;50.95;;;25.70;55.00;;;;;;4936305;28;95299;-51
2022/07/31 00:51:44;;;;;;;62.15;50.88;;;25.70;55.00;;;;;;4936095;28;89779;-54
2022/07/31 00:54:10;;;;;;;60.92;50.80;;;25.70;55.10;;;;;;4939526;28;90676;-51
2022/07/31 00:56:36;;;;;;;60.55;50.85;;;25.70;55.00;;;;;;4936308;28;90072;-51
2022/07/31 00:59:02;;;;;;;60.65;50.83;;;25.70;55.00;;;;;;4927132;28;90427;-47
2022/07/31 01:01:29;;;;;;;60.85;51.13;;;25.60;55.00;;;;;;4941168;28;90154;-52
2022/07/31 01:03:55;;;;;;;61.08;51.05;;;25.60;55.10;;;;;;4949038;28;92700;-49
2022/07/31 01:06:21;;;;;;;60.33;50.60;;;25.70;55.10;;;;;;4943551;28;91572;-49
2022/07/31 01:08:46;;;;;;;60.28;50.83;;;25.70;55.10;;;;;;4948131;28;90275;-50
2022/07/31 01:11:20;;;;;;;61.42;50.88;;;25.60;55.20;;;;;;4939641;28;89808;-49
2022/07/31 01:13:56;;;;;;;60.70;50.97;;;25.60;55.30;;;;;;4933804;28;92063;-51
2022/07/31 01:16:27;;;;;;;60.05;50.63;;;25.60;55.30;;;;;;4934256;28;92678;-48
2022/07/31 01:18:56;;;;;;;60.58;50.95;;;25.60;55.40;;;;;;4926152;28;89604;-47
2022/07/31 01:21:34;;;;;;;60.97;50.75;;;25.50;55.60;;;;;;4940136;28;89356;-50
2022/07/31 01:24:14;;;;;;;60.17;50.70;;;25.50;55.50;;;;;;4937204;28;90386;-51
2022/07/31 01:26:50;;;;;;;61.05;50.75;;;25.60;55.60;;;;;;4948782;28;90578;-50
2022/07/31 01:29:26;;;;;;;60.28;50.55;;;25.50;55.50;;;;;;4928170;28;91000;-48
2022/07/31 01:32:01;;;;;;;60.90;50.90;;;25.60;55.60;;;;;;4931436;28;91089;-49
2022/07/31 01:34:36;;;;;;;59.97;50.58;;;25.50;55.60;;;;;;4936134;28;90091;-51
2022/07/31 01:37:09;;;;;;;60.55;50.85;;;25.50;55.60;;;;;;4944254;28;90236;-53
2022/07/31 01:39:37;;;;;;;61.00;50.75;;;25.40;55.80;;;;;;4943142;28;89971;-51
2022/07/31 01:42:06;;;;;;;60.70;50.47;;;25.50;55.70;;;;;;4936038;28;90795;-52
2022/07/31 01:44:42;;;;;;;60.53;50.72;;;25.50;55.70;;;;;;4939729;28;90497;-52
2022/07/31 01:47:13;;;;;;;60.15;50.60;;;25.40;55.80;;;;;;4946316;28;89150;-53
2022/07/31 01:49:40;;;;;;;60.90;50.65;;;25.40;55.90;;;;;;4938654;28;92653;-51
2022/07/31 01:52:06;;;;;;;60.78;50.67;;;25.40;55.90;;;;;;4938398;28;89725;-48
2022/07/31 01:54:33;;;;;;;60.75;50.92;;;25.40;55.90;;;;;;4939663;28;91090;-47
2022/07/31 01:57:01;;;;;;;60.35;50.60;;;25.40;56.10;;;;;;4935528;28;96236;-51
2022/07/31 01:59:28;;;;;;;61.10;50.83;;;25.40;56.00;;;;;;4936865;28;90848;-49
2022/07/31 02:01:54;;;;;;;61.72;50.70;;;25.40;56.00;;;;;;4940127;28;90237;-54
2022/07/31 02:04:21;;;;;;;61.35;50.85;;;25.40;56.00;;;;;;4944963;28;90305;-47
2022/07/31 02:06:48;;;;;;;60.78;50.72;;;25.40;56.20;;;;;;4941189;28;91333;-50
2022/07/31 02:09:16;;;;;;;60.60;50.85;;;25.30;56.00;;;;;;4936509;28;94961;-51
2022/07/31 02:11:44;;;;;;;60.38;50.55;;;25.30;56.00;;;;;;4939795;28;89662;-52
2022/07/31 02:14:09;;;;;;;60.72;50.95;;;25.40;56.20;;;;;;4934990;28;92333;-51
2022/07/31 02:16:36;;;;;;;60.13;50.53;;;25.30;56.10;;;;;;4943845;28;90580;-53
2022/07/31 02:19:04;;;;;;;60.55;50.90;;;25.30;56.10;;;;;;4936044;28;91187;-52
2022/07/31 02:21:30;;;;;;;60.33;50.67;;;25.30;56.20;;;;;;4946662;28;91917;-46
2022/07/31 02:23:56;;;;;;;60.47;50.67;;;25.30;56.30;;;;;;4935598;28;90146;-54
2022/07/31 02:26:23;;;;;;;60.38;50.85;;;25.30;56.30;;;;;;4944095;28;90687;-49
2022/07/31 02:28:51;;;;;;;59.97;50.70;;;25.30;56.30;;;;;;4946934;28;94337;-50
2022/07/31 02:31:18;;;;;;;59.90;50.53;;;25.30;56.30;;;;;;4950962;28;89818;-54
2022/07/31 02:33:46;;;;;;;61.50;50.83;;;25.30;56.40;;;;;;4935302;28;95530;-52
2022/07/31 02:36:13;;;;;;;59.85;50.55;;;25.30;56.40;;;;;;4950818;28;89920;-49
2022/07/31 02:38:41;;;;;;;60.63;50.78;;;25.30;56.60;;;;;;4940982;28;89861;-49
2022/07/31 02:41:10;;;;;;;61.38;50.80;;;25.20;56.50;;;;;;4951803;28;91183;-49
2022/07/31 02:43:36;;;;;;;60.40;50.35;;;25.20;56.60;;;;;;4942598;28;90740;-53
2022/07/31 02:46:03;;;;;;;60.03;50.63;;;25.20;56.40;;;;;;4940901;28;91321;-52
2022/07/31 02:48:29;;;;;;;59.88;50.40;;;25.30;57.20;;;;;;4949671;28;94617;-51
2022/07/31 02:50:56;;;;;;;60.38;50.72;;;25.20;56.40;;;;;;4940114;28;90162;-49
2022/07/31 02:53:21;;;;;;;60.38;50.78;;;25.20;56.40;;;;;;4938725;28;90024;-54
2022/07/31 02:55:49;;;;;;;60.22;50.63;;;25.20;56.60;;;;;;4945911;28;92187;-50
2022/07/31 02:58:15;;;;;;;60.25;50.63;;;25.20;56.60;;;;;;4950351;28;89928;-49
2022/07/31 03:00:41;;;;;;;60.10;50.50;;;25.20;56.60;;;;;;4957273;28;90483;-51
2022/07/31 03:03:06;;;;;;;60.38;50.85;;;25.20;56.60;;;;;;4942559;28;89932;-52
2022/07/31 03:05:32;;;;;;;60.95;50.72;;;25.20;56.70;;;;;;4940287;28;90576;-53
2022/07/31 03:07:58;;;;;;;60.38;50.88;;;25.20;56.60;;;;;;4940313;28;90697;-47
2022/07/31 03:10:24;;;;;;;59.92;50.38;;;25.20;56.60;;;;;;4949307;28;89673;-50
2022/07/31 03:12:53;;;;;;;60.63;50.53;;;25.20;56.70;;;;;;4932471;28;95802;-52
2022/07/31 03:15:22;;;;;;;59.50;50.33;;;25.20;56.70;;;;;;4939243;28;91390;-54
2022/07/31 03:17:49;;;;;;;60.30;50.45;;;25.20;56.70;;;;;;4946726;28;91085;-49
2022/07/31 03:20:15;;;;;;;59.85;50.35;;;25.20;56.80;;;;;;4943208;28;95800;-48
2022/07/31 03:22:42;;;;;;;61.05;50.83;;;25.20;56.80;;;;;;4939978;28;93585;-51
2022/07/31 03:25:09;;;;;;;61.15;50.65;;;25.20;56.70;;;;;;4947172;28;96052;-50
2022/07/31 03:27:35;;;;;;;60.22;50.45;;;25.10;56.70;;;;;;4934185;28;95140;-54
2022/07/31 03:30:01;;;;;;;60.80;50.75;;;25.10;56.70;;;;;;4939022;28;89726;-54
2022/07/31 03:32:26;;;;;;;60.75;50.80;;;25.10;56.80;;;;;;4932172;28;92029;-52
2022/07/31 03:34:52;;;;;;;61.00;50.60;;;25.10;56.80;;;;;;4937312;28;90786;-53
2022/07/31 03:37:18;;;;;;;59.92;50.45;;;25.10;56.80;;;;;;4937201;28;90453;-51
2022/07/31 03:39:43;;;;;;;60.33;50.75;;;25.10;56.80;;;;;;4945054;28;89731;-50
2022/07/31 03:42:10;;;;;;;59.80;50.63;;;25.10;56.70;;;;;;4944491;28;89681;-50
2022/07/31 03:44:38;;;;;;;59.97;50.53;;;25.10;56.80;;;;;;4943125;28;92829;-50
2022/07/31 03:47:04;;;;;;;60.10;50.75;;;25.10;56.80;;;;;;4936321;28;94954;-47
2022/07/31 03:49:31;;;;;;;61.05;50.45;;;25.10;56.70;;;;;;4938775;28;94684;-52
2022/07/31 03:51:57;;;;;;;59.95;50.72;;;25.10;56.80;;;;;;4940768;28;91015;-51
2022/07/31 03:54:23;;;;;;;59.90;50.53;;;25.10;56.70;;;;;;4945056;28;90998;-51
2022/07/31 03:56:51;;;;;;;60.47;50.63;;;25.10;56.80;;;;;;4949995;28;92574;-53
2022/07/31 03:59:18;;;;;;;59.97;50.53;;;25.10;56.80;;;;;;4939002;28;91820;-53
2022/07/31 04:01:44;;;;;;;59.88;50.45;;;25.00;56.80;;;;;;4940895;28;89744;-54
2022/07/31 04:04:10;;;;;;;60.22;50.65;;;25.10;56.90;;;;;;4941148;28;91842;-52
2022/07/31 04:06:36;;;;;;;60.42;50.72;;;25.10;56.90;;;;;;4938954;28;94514;-51
2022/07/31 04:09:02;;;;;;;60.70;50.72;;;25.10;56.90;;;;;;4933705;28;90021;-52
2022/07/31 04:11:28;;;;;;;60.35;50.97;;;25.10;57.00;;;;;;4934790;28;90758;-48
2022/07/31 04:13:54;;;;;;;61.05;50.75;;;25.10;57.00;;;;;;4942574;28;90196;-51
2022/07/31 04:16:20;;;;;;;60.53;50.53;;;25.10;56.90;;;;;;4949040;28;90307;-52
2022/07/31 04:18:46;;;;;;;60.60;50.65;;;25.00;56.90;;;;;;4941643;28;91409;-49
2022/07/31 04:21:12;;;;;;;59.83;50.42;;;25.00;56.90;;;;;;4943148;28;94815;-50
2022/07/31 04:23:38;;;;;;;59.97;50.55;;;25.10;57.00;;;;;;4936661;28;96061;-53
2022/07/31 04:26:03;;;;;;;59.88;50.75;;;25.10;57.00;;;;;;4940453;28;90628;-52
2022/07/31 04:28:29;;;;;;;60.42;50.90;;;25.00;56.90;;;;;;4943058;28;90075;-51
2022/07/31 04:30:55;;;;;;;60.40;50.88;;;25.00;56.90;;;;;;4943922;28;90197;-52
2022/07/31 04:33:20;;;;;;;61.22;50.85;;;25.00;57.00;;;;;;4932104;28;93008;-50
2022/07/31 04:35:46;;;;;;;59.88;50.58;;;25.00;57.20;;;;;;4922446;28;89799;-53
2022/07/31 04:38:13;;;;;;;60.08;50.55;;;25.00;57.00;;;;;;4945939;28;90517;-52
2022/07/31 04:40:38;;;;;;;59.92;50.67;;;25.00;57.00;;;;;;4940378;28;90078;-53
2022/07/31 04:43:04;;;;;;;60.15;50.83;;;25.00;57.00;;;;;;4935638;28;89957;-50
2022/07/31 04:45:30;;;;;;;59.95;50.65;;;25.00;57.10;;;;;;4936186;28;93073;-51
2022/07/31 04:47:56;;;;;;;60.00;50.67;;;25.00;57.00;;;;;;4949133;28;90093;-53
2022/07/31 04:50:21;;;;;;;61.45;50.88;;;25.00;56.90;;;;;;4942546;28;90253;-47
2022/07/31 04:52:47;;;;;;;59.60;50.53;;;25.00;57.00;;;;;;4948634;28;91035;-53
2022/07/31 04:55:13;;;;;;;60.78;50.83;;;25.00;57.00;;;;;;4938624;28;93275;-51
2022/07/31 04:57:38;;;;;;;60.15;50.75;;;25.00;57.10;;;;;;4944517;28;94288;-51
2022/07/31 05:00:07;;;;;;;60.03;50.80;;;25.00;57.10;;;;;;4934839;28;90315;-46
2022/07/31 05:02:33;;;;;;;60.47;50.65;;;25.00;57.10;;;;;;4939367;28;90004;-53
2022/07/31 05:04:58;;;;;;;60.00;50.58;;;25.00;57.00;;;;;;4942900;28;89802;-50
2022/07/31 05:07:25;;;;;;;61.33;50.92;;;25.00;57.00;;;;;;4941928;28;89645;-51
2022/07/31 05:09:50;;;;;;;60.45;50.88;;;25.00;57.00;;;;;;4945990;28;90864;-49
2022/07/31 05:12:16;;;;;;;60.55;50.85;;;25.00;57.00;;;;;;4943880;28;94290;-53
2022/07/31 05:14:42;;;;;;;60.95;50.80;;;25.00;56.90;;;;;;4945634;28;90085;-53
2022/07/31 05:17:07;;;;;;;60.08;50.72;;;25.00;57.10;;;;;;4932528;28;90504;-50
2022/07/31 05:19:33;;;;;;;60.25;50.95;;;25.00;57.00;;;;;;4932563;28;94738;-53
2022/07/31 05:21:58;;;;;;;60.45;50.90;;;25.00;56.90;;;;;;4949443;28;94700;-50
2022/07/31 05:24:24;;;;;;;59.70;50.67;;;25.00;57.10;;;;;;4939141;28;92457;-49
2022/07/31 05:26:50;;;;;;;60.63;50.90;;;25.00;56.90;;;;;;4941859;28;89481;-50
2022/07/31 05:29:15;;;;;;;60.13;50.80;;;25.00;56.90;;;;;;4940894;28;89786;-52
2022/07/31 05:31:41;;;;;;;60.30;50.85;;;25.10;56.90;;;;;;4951384;28;91719;-49
2022/07/31 05:34:07;;;;;;;60.25;50.75;;;25.00;57.50;;;;;;4946022;28;90502;-51
2022/07/31 05:36:32;;;;;;;59.72;50.58;;;25.10;56.70;;;;;;4939011;28;90677;-51
2022/07/31 05:38:58;;;;;;;61.42;50.92;;;25.10;56.70;;;;;;4943511;28;92542;-53
2022/07/31 05:41:24;;;;;;;60.88;50.90;;;25.10;56.40;;;;;;4942845;28;89995;-52
2022/07/31 05:43:49;;;;;;;60.55;50.97;;;25.20;56.40;;;;;;4945722;28;90035;-54
2022/07/31 05:46:16;;;;;;;60.83;51.10;;;25.20;56.40;;;;;;4947414;28;89900;-52
2022/07/31 05:48:43;;;;;;;60.42;50.97;;;25.20;56.40;;;;;;4949407;28;96933;-53
2022/07/31 05:51:10;;;;;;;60.13;50.60;;;25.20;56.50;;;;;;4944560;28;90090;-49
2022/07/31 05:53:37;;;;;;;60.42;51.00;;;25.20;56.40;;;;;;4942694;28;90474;-54
2022/07/31 05:56:04;;;;;;;60.00;50.67;;;25.20;56.30;;;;;;4943222;28;92375;-54
2022/07/31 05:58:30;;;;;;;60.17;50.60;;;25.20;56.20;;;;;;4942722;28;92668;-50
2022/07/31 06:00:55;;;;;;;60.20;51.05;;;25.20;56.00;;;;;;4939002;28;94658;-52
2022/07/31 06:03:27;;;;;;;60.20;50.95;;;25.20;56.00;;;;;;4942131;28;89894;-51
2022/07/31 06:05:54;;;;;;;61.40;51.05;;;25.20;56.10;;;;;;4942745;28;90911;-53
2022/07/31 06:08:19;;;;;;;60.38;50.92;;;25.20;56.00;;;;;;4938453;28;97430;-48
2022/07/31 06:10:45;;;;;;;61.05;50.83;;;25.30;56.10;;;;;;4942650;28;91055;-53
2022/07/31 06:13:12;;;;;;;60.88;51.05;;;25.20;55.90;;;;;;4944524;28;91240;-51
2022/07/31 06:15:38;;;;;;;60.30;50.88;;;25.30;56.00;;;;;;4943021;28;89989;-46
2022/07/31 06:18:04;;;;;;;60.33;51.00;;;25.30;55.90;;;;;;4952281;28;91873;-53
2022/07/31 06:20:30;;;;;;;60.08;50.85;;;25.20;55.90;;;;;;4932060;28;90015;-52
2022/07/31 06:22:55;;;;;;;60.08;50.85;;;25.30;55.90;;;;;;4946282;28;91446;-53
2022/07/31 06:25:21;;;;;;;60.70;50.92;;;25.30;55.80;;;;;;4953017;28;89906;-53
2022/07/31 06:27:47;;;;;;;60.50;50.95;;;25.30;55.80;;;;;;4947971;28;90171;-51
2022/07/31 06:30:13;;;;;;;61.13;51.13;;;25.30;55.90;;;;;;4945374;28;94041;-51
2022/07/31 06:32:39;;;;;;;60.40;51.05;;;25.40;55.50;;;;;;4937588;28;89699;-47
2022/07/31 06:35:06;;;;;;;60.58;50.95;;;25.40;55.70;;;;;;4942173;28;91095;-48
2022/07/31 06:37:31;;;;;;;61.25;51.17;;;25.40;55.60;;;;;;4933279;28;93740;-50
2022/07/31 06:39:57;;;;;;;61.15;51.15;;;25.40;55.60;;;;;;4949410;28;94369;-53
2022/07/31 06:42:24;;;;;;;61.97;51.38;;;25.40;55.70;;;;;;4951164;28;90241;-48
2022/07/31 06:44:50;;;;;;;62.35;51.45;;;25.40;56.10;;;;;;4945892;28;96736;-51
2022/07/31 06:47:18;;;;;;;61.28;51.25;;;25.40;55.60;;;;;;4941178;28;91033;-49
2022/07/31 06:49:44;;;;;;;61.45;51.47;;;25.40;55.50;;;;;;4944118;28;94177;-47
2022/07/31 06:52:09;;;;;;;62.08;51.53;;;25.40;55.50;;;;;;4947546;28;90720;-53
2022/07/31 06:54:35;;;;;;;61.55;51.25;;;25.40;56.20;;;;;;4934272;28;90653;-53
2022/07/31 06:57:02;;;;;;;61.25;50.90;;;25.40;55.50;;;;;;4939958;28;89937;-52
2022/07/31 06:59:27;;;;;;;61.38;51.22;;;25.40;55.60;;;;;;4943022;28;93035;-51
2022/07/31 07:01:53;;;;;;;61.65;51.33;;;25.40;55.50;;;;;;4936159;28;90459;-52
2022/07/31 07:04:19;;;;;;;62.15;51.25;;;25.40;55.40;;;;;;4943063;28;91199;-51
2022/07/31 07:06:44;;;;;;;61.33;51.30;;;25.50;55.60;;;;;;4939812;28;90428;-54
2022/07/31 07:09:10;;;;;;;61.17;51.35;;;25.50;55.60;;;;;;4936638;28;90195;-51
2022/07/31 07:11:35;;;;;;;61.10;51.33;;;25.50;55.60;;;;;;4930594;28;93924;-51
2022/07/31 07:14:01;;;;;;;60.92;51.22;;;25.50;55.50;;;;;;4938060;28;89972;-49
2022/07/31 07:16:27;;;;;;;61.17;51.42;;;25.50;55.40;;;;;;4944946;28;89859;-53
2022/07/31 07:18:52;;;;;;;62.08;51.65;;;25.50;55.20;;;;;;4939267;28;95641;-55
2022/07/31 07:21:18;;;;;;;63.40;53.63;;;25.60;55.30;;;;;;4933460;28;94724;-50
2022/07/31 07:23:44;;;;;;;64.97;53.45;;;25.40;57.40;;;;;;4932724;28;90046;-53
2022/07/31 07:26:09;;;;;;;66.38;54.03;;;25.20;58.40;;;;;;4934359;28;95295;-48
2022/07/31 07:28:35;;;;;;;64.38;53.65;;;25.10;58.60;;;;;;4949567;28;89489;-52
2022/07/31 07:31:02;;;;;;;66.47;53.28;;;24.90;59.30;;;;;;4950117;28;91295;-51
2022/07/31 07:33:29;;;;;;;66.07;53.38;;;24.90;59.30;;;;;;4943574;28;90598;-53
2022/07/31 07:35:54;;;;;;;63.95;53.13;;;24.80;59.50;;;;;;4940035;28;97486;-54
2022/07/31 07:38:20;;;;;;;66.28;53.70;;;24.80;59.70;;;;;;4943804;28;90485;-48
2022/07/31 07:40:46;;;;;;;66.18;53.50;;;24.70;60.10;;;;;;4948930;28;91144;-52
2022/07/31 07:43:12;;;;;;;66.82;53.20;;;24.50;60.60;;;;;;4954025;28;91554;-51
2022/07/31 07:45:38;;;;;;;65.43;53.80;;;24.60;60.50;;;;;;4940390;28;90271;-52
2022/07/31 07:48:05;;;;;;;64.00;53.15;;;24.50;60.90;;;;;;4937349;28;89902;-46
2022/07/31 07:50:30;;;;;;;63.88;53.20;;;24.50;61.10;;;;;;4944121;28;93038;-49
2022/07/31 07:52:56;;;;;;;64.35;53.13;;;24.40;61.20;;;;;;4938837;28;92661;-50
2022/07/31 07:55:22;;;;;;;64.10;53.08;;;24.50;60.80;;;;;;4935562;28;90003;-54
2022/07/31 07:57:48;;;;;;;67.50;53.50;;;24.60;60.70;;;;;;4926431;28;90285;-55
2022/07/31 08:00:15;;;;;;;63.60;53.35;;;24.70;60.50;;;;;;4956696;28;91503;-55
2022/07/31 08:02:43;;;;;;;64.53;53.35;;;24.50;61.20;;;;;;4940970;28;94927;-50
2022/07/31 08:05:10;;;;;;;64.10;52.90;;;24.40;61.50;;;;;;4936061;28;91423;-53
2022/07/31 08:07:37;;;;;;;63.42;52.75;;;24.50;61.80;;;;;;4937665;28;93484;-53
2022/07/31 08:10:05;;;;;;;65.18;53.25;;;24.40;61.90;;;;;;4906381;28;93784;-48
2022/07/31 08:12:31;;;;;;;64.95;52.92;;;24.40;61.70;;;;;;4925997;28;91409;-45
2022/07/31 08:14:56;;;;;;;62.70;53.10;;;24.30;61.70;;;;;;4935928;28;93318;-49
2022/07/31 08:17:22;;;;;;;63.28;53.47;;;24.20;62.10;;;;;;4941674;28;94350;-47
2022/07/31 08:19:48;;;;;;;64.80;53.17;;;24.30;62.50;;;;;;4930623;28;90160;-54
2022/07/31 08:22:13;;;;;;;62.58;52.70;;;24.10;62.70;;;;;;4923942;28;92475;-49
2022/07/31 08:24:39;;;;;;;63.38;52.70;;;24.20;62.40;;;;;;4933113;28;98147;-46
2022/07/31 08:27:24;;;;;;;64.50;52.63;;;24.40;61.70;;;;;;4933650;28;90370;-47
2022/07/31 08:29:55;;;;;;;66.07;52.75;;;24.50;61.30;;;;;;4934086;28;90902;-51
2022/07/31 08:32:22;;;;;;;64.72;52.65;;;24.40;60.80;;;;;;4934422;28;91449;-48
2022/07/31 08:34:48;;;;;;;63.88;52.90;;;24.50;60.70;;;;;;4944042;28;89901;-56
2022/07/31 08:37:17;;;;;;;65.93;53.00;;;24.50;60.90;;;;;;4946693;28;90587;-53
2022/07/31 08:39:44;;;;;;;65.53;52.97;;;24.60;60.90;;;;;;4936998;28;89980;-51
2022/07/31 08:42:09;;;;;;;63.63;52.78;;;24.50;61.10;;;;;;4930462;28;93677;-56
2022/07/31 08:44:36;;;;;;;65.63;52.72;;;24.60;60.60;;;;;;4937166;28;91388;-54
2022/07/31 08:47:05;;;;;;;67.22;53.08;;;24.60;61.00;;;;;;4934437;28;90234;-48
2022/07/31 08:49:36;;;;;;;76.07;55.80;;;24.50;61.20;;;;;;4935573;28;92243;-52
2022/07/31 08:52:02;;;;;;;66.75;53.50;;;24.60;61.60;;;;;;4941405;28;90785;-56
2022/07/31 08:54:29;;;;;;;68.25;53.63;;;24.50;61.30;;;;;;4929670;28;90601;-55
2022/07/31 08:56:55;;;;;;;67.50;53.10;;;24.50;61.30;;;;;;4929617;28;90808;-48
2022/07/31 08:59:21;;;;;;;65.35;53.08;;;24.50;61.20;;;;;;4916387;28;95886;-50
2022/07/31 09:01:48;;;;;;;64.22;52.58;;;24.60;61.50;;;;;;4940793;28;90203;-54
2022/07/31 09:04:14;;;;;;;65.55;52.67;;;24.70;60.80;;;;;;4944476;28;90448;-48
2022/07/31 09:06:40;;;;;;;64.70;52.65;;;24.80;61.00;;;;;;4939726;28;91723;-53
2022/07/31 09:09:06;;;;;;;62.30;51.95;;;24.80;60.70;;;;;;4940163;28;90834;-55
2022/07/31 09:11:33;;;;;;;62.50;52.08;;;24.80;60.40;;;;;;4937931;28;97525;-51
2022/07/31 09:14:01;;;;;;;62.90;51.80;;;24.90;60.50;;;;;;4922519;28;90956;-52
2022/07/31 09:16:27;;;;;;;62.78;52.40;;;24.90;60.40;;;;;;4929024;28;91707;-47
2022/07/31 09:19:13;;;;;;;65.97;52.65;;;25.00;60.10;;;;;;4936215;28;95128;-53
2022/07/31 09:21:44;;;;;;;64.75;52.55;;;25.10;59.90;;;;;;4922331;28;90232;-55
2022/07/31 09:24:12;;;;;;;64.03;52.42;;;25.10;60.00;;;;;;4930103;28;94873;-54
2022/07/31 09:26:39;;;;;;;66.35;52.70;;;25.20;60.00;;;;;;4933710;28;92550;-51
2022/07/31 09:29:11;;;;;;;65.88;53.03;;;25.10;59.60;;;;;;4922597;28;91888;-52
2022/07/31 09:31:38;;;;;;;67.68;52.85;;;25.20;59.80;;;;;;4931536;28;90979;-54
2022/07/31 09:34:04;;;;;;;78.05;54.50;;;25.20;60.90;;;;;;4938837;28;92253;-55
2022/07/31 09:36:30;;;;;;;72.03;53.85;;;25.20;59.70;;;;;;4932999;28;91449;-49
2022/07/31 09:38:56;;;;;;;70.45;54.55;;;25.20;59.60;;;;;;4939140;28;90834;-56
2022/07/31 09:41:22;;;;;;;67.85;53.28;;;25.20;59.50;;;;;;4951088;28;91045;-55
2022/07/31 09:43:59;;;;;;;70.32;53.85;;;25.30;59.30;;;;;;4940857;28;92144;-53
2022/07/31 09:46:26;;;;;;;70.97;53.42;;;25.30;59.20;;;;;;4938695;28;95283;-55
2022/07/31 09:48:54;;;;;;;66.97;53.70;;;25.30;59.00;;;;;;4939667;28;90190;-56
2022/07/31 09:51:20;;;;;;;73.95;53.70;;;25.40;58.90;;;;;;4945166;28;89629;-50
2022/07/31 09:53:55;;;;;;;66.25;53.30;;;25.40;58.70;;;;;;4945469;28;90215;-54
2022/07/31 09:56:34;;;;;;;71.60;54.55;;;25.40;58.50;;;;;;4950688;28;90631;-56
2022/07/31 09:59:01;;;;;;;72.18;54.55;;;25.40;58.30;;;;;;4940553;28;95395;-52
2022/07/31 10:01:27;;;;;;;68.38;53.97;;;25.40;58.20;;;;;;4941795;28;89985;-56
2022/07/31 10:03:57;;;;;;;69.43;54.50;;;25.50;58.10;;;;;;4954353;28;91480;-55
2022/07/31 10:06:25;;;;;;;69.22;53.58;;;25.50;58.00;;;;;;4939285;28;90896;-56
2022/07/31 10:08:51;;;;;;;65.38;53.70;;;25.50;57.80;;;;;;4939518;28;89770;-56
2022/07/31 10:11:18;;;;;;;66.35;53.70;;;25.50;57.70;;;;;;4947117;28;89863;-59
2022/07/31 10:13:49;;;;;;;70.82;54.50;;;25.50;57.70;;;;;;4946341;28;91090;-56
2022/07/31 10:16:15;;;;;;;71.20;54.22;;;25.50;57.60;;;;;;4940306;28;91079;-57
2022/07/31 10:18:48;;;;;;;69.88;54.95;;;25.60;57.60;;;;;;4946465;28;89925;-56
2022/07/31 10:21:16;;;;;;;72.32;55.30;;;25.60;57.50;;;;;;4941383;28;89100;-55
2022/07/31 10:23:44;;;;;;;70.95;54.67;;;25.60;57.50;;;;;;4952476;28;90377;-56
2022/07/31 10:26:09;;;;;;;67.80;53.67;;;25.60;57.50;;;;;;4950715;28;90173;-56
2022/07/31 10:28:39;;;;;;;71.30;54.67;;;25.60;57.40;;;;;;4934141;28;91113;-56
2022/07/31 10:31:06;;;;;;;71.10;54.33;;;25.60;57.40;;;;;;4939878;28;89506;-56
2022/07/31 10:33:33;;;;;;;70.85;54.55;;;25.50;57.40;;;;;;4941075;28;93861;-56
2022/07/31 10:36:11;;;;;;;71.20;55.03;;;25.50;57.40;;;;;;4937469;28;89977;-55
2022/07/31 10:39:15;;;;;;;67.40;53.80;;;25.40;57.50;;;;;;4942940;28;89701;-54
2022/07/31 10:42:11;;;;;;;67.47;53.85;;;25.50;57.40;;;;;;4935577;28;94607;-57
2022/07/31 10:44:49;;;;;;;70.15;54.38;;;25.50;57.30;;;;;;4945349;28;90372;-57
2022/07/31 10:47:16;;;;;;;68.18;54.42;;;25.50;57.40;;;;;;4942145;28;94517;-54
2022/07/31 10:49:47;;;;;;;68.80;54.53;;;25.50;57.30;;;;;;4940904;28;90007;-57
2022/07/31 10:52:33;;;;;;;66.32;53.60;;;25.50;57.20;;;;;;4946445;28;89878;-50
2022/07/31 10:55:00;;;;;;;68.85;54.25;;;25.60;57.20;;;;;;4951741;28;91258;-57
2022/07/31 10:57:32;;;;;;;68.20;53.65;;;25.60;57.10;;;;;;4945987;28;93227;-56
2022/07/31 11:00:12;;;;;;;66.45;53.83;;;25.60;57.10;;;;;;4938203;28;89686;-55
2022/07/31 11:02:38;;;;;;;68.32;54.47;;;25.60;57.10;;;;;;4948166;28;92125;-57
2022/07/31 11:05:10;;;;;;;69.05;54.67;;;25.50;57.00;;;;;;4941771;28;89620;-56
2022/07/31 11:07:35;;;;;;;68.72;54.15;;;25.60;57.00;;;;;;4943536;28;93398;-49
2022/07/31 11:10:20;;;;;;;69.63;54.28;;;25.60;57.00;;;;;;4935608;28;94262;-57
2022/07/31 11:13:01;;;;;;;67.85;54.20;;;25.50;57.10;;;;;;4959109;28;88750;-55
2022/07/31 11:15:27;;;;;;;;;;;25.50;57.10;;;;;;4946735;28;89945;-56
2022/07/31 11:17:53;;;;;;;70.07;54.05;;;25.60;57.10;;;;;;4940122;28;89436;-54
2022/07/31 11:20:24;;;;;;;67.68;54.08;;;25.50;57.00;;;;;;4941144;28;90931;-56
2022/07/31 11:22:57;;;;;;;66.57;54.00;;;25.50;57.00;;;;;;4949823;28;91141;-56
2022/07/31 11:25:24;;;;;;;67.88;54.10;;;25.50;57.00;;;;;;4948810;28;91212;-56
2022/07/31 11:27:51;;;;;;;69.05;54.25;;;25.60;57.10;;;;;;4948845;28;90524;-51
2022/07/31 11:30:16;;;;;;;69.50;54.45;;;25.50;56.90;;;;;;4954335;28;90034;-56
2022/07/31 11:32:50;;;;;;;67.90;54.35;;;25.60;57.00;;;;;;4943426;28;89477;-57
2022/07/31 11:35:30;;;;;;;67.85;54.15;;;25.60;56.80;;;;;;4941509;28;91704;-55
2022/07/31 11:37:59;;;;;;;67.85;54.70;;;25.60;56.80;;;;;;4941575;28;89906;-56
2022/07/31 11:40:25;;;;;;;68.55;54.28;;;25.60;56.80;;;;;;4942522;28;89635;-54
2022/07/31 11:42:51;;;;;;;66.85;54.17;;;25.60;56.80;;;;;;4952842;28;90100;-56
2022/07/31 11:45:17;;;;;;;67.03;53.92;;;25.60;56.80;;;;;;4935662;28;97669;-49
2022/07/31 11:47:44;;;;;;;65.90;53.67;;;25.60;56.80;;;;;;4941508;28;89910;-56
2022/07/31 11:50:11;;;;;;;68.95;54.13;;;25.60;56.80;;;;;;4943730;28;93461;-52
2022/07/31 11:52:42;;;;;;;66.57;53.90;;;25.60;56.90;;;;;;4948199;28;89766;-55
2022/07/31 11:55:10;;;;;;;66.93;54.00;;;25.60;56.70;;;;;;4935125;28;91401;-56
2022/07/31 11:57:37;;;;;;;66.60;54.03;;;25.70;56.70;;;;;;4940888;28;91085;-58
2022/07/31 12:00:11;;;;;;;69.38;53.72;;;25.70;56.60;;;;;;4954041;28;89528;-56
2022/07/31 12:02:41;;;;;;;65.93;53.88;;;25.70;56.60;;;;;;4954638;28;90342;-56
2022/07/31 12:05:08;;;;;;;69.97;54.03;;;25.70;56.50;;;;;;4945542;28;90329;-55
2022/07/31 12:07:35;;;;;;;67.78;53.38;;;25.80;56.40;;;;;;4944216;28;90062;-56
2022/07/31 12:10:02;;;;;;;66.53;53.63;;;25.80;56.40;;;;;;4948724;28;90884;-54
2022/07/31 12:12:29;;;;;;;65.82;53.65;;;25.80;56.30;;;;;;4946064;28;94015;-55
2022/07/31 12:14:54;;;;;;;65.28;53.65;;;25.70;56.30;;;;;;4946690;28;90822;-56
2022/07/31 12:17:21;;;;;;;65.90;53.78;;;25.70;56.30;;;;;;4946475;28;93291;-54
2022/07/31 12:19:47;;;;;;;65.50;53.50;;;25.70;56.30;;;;;;4953307;28;90120;-54
2022/07/31 12:22:15;;;;;;;65.97;53.45;;;25.80;56.40;;;;;;4953597;28;89614;-57
2022/07/31 12:24:41;;;;;;;66.80;53.45;;;25.70;56.40;;;;;;4949002;28;90283;-54
2022/07/31 12:27:07;;;;;;;65.07;53.25;;;25.70;56.40;;;;;;4946851;28;92205;-55
2022/07/31 12:29:35;;;;;;;67.38;53.22;;;25.70;56.40;;;;;;4946552;28;90237;-51